Osakis, Minnesota
Current Conditions -  °F | °C
As of 8:53 PM on Friday 21 Nov 2014 (Local Time) from KAXN Reporting Station
Broken Clouds Broken Clouds  
Wind Chill: -8°   Ceiling: 10000
Heat Index: -1°   Visibility: 10mi
Dew Point: -4°   Wind: 17mph
Humidity: 82%   Direction: 200°SSW
Pressure: 29.77"   Gusts: NA
Location:  45.87°N, 95.15°W
Report Text: KAXN 220253Z AUTO 20015KT 10SM BKN100 M01/M04 A2977 RMK AO2 SLP104 T10111039 58015
Loading
Personal Weather Stations






























Interactive Weather Map New forecast layout! Learn more

10-Day Weather Forecast

Advertisements
Track Severe Weather on mobile